Time;durP1;ratioP1;P1;durP2;ratioP2;P2;SDS_P1;SDS_P2;PMS_P1;PMS_P2;Temp;Humidity;BMP_temperature;BMP_pressure;BME280_temperature;BME280_humidity;BME280_pressure;Samples;Min_cycle;Max_cycle;Signal;HPM_P1;HPM_P2
2023/09/06 00:02:07;;;;;;;4.80;4.07;;;;;;;;;;4880710;29;20045;-80
2023/09/06 00:04:33;;;;;;;3.90;3.70;;;;;;;;;;4880646;29;20105;-80
2023/09/06 00:07:00;;;;;;;3.63;3.33;;;;;;;;;;4881470;29;20048;-80
2023/09/06 00:09:26;;;;;;;5.35;3.90;;;;;;;;;;4880051;29;20056;-80
2023/09/06 00:11:52;;;;;;;6.15;4.00;;;;;;;;;;4866005;29;20374;-80
2023/09/06 00:14:19;;;;;;;3.45;3.35;;;;;;;;;;4880701;29;20053;-80
2023/09/06 00:16:46;;;;;;;4.13;3.78;;;;;;;;;;4881267;29;20056;-79
2023/09/06 00:19:14;;;;;;;4.40;4.18;;;;;;;;;;4881434;29;20088;-80
2023/09/06 00:21:41;;;;;;;4.57;3.88;;;;;;;;;;4864001;29;20136;-80
2023/09/06 00:24:12;;;;;;;5.72;3.70;;;;;;;;;;4881286;29;20057;-81
2023/09/06 00:26:39;;;;;;;3.88;3.67;;;;;;;;;;4881218;29;20052;-80
2023/09/06 00:29:08;;;;;;;3.55;3.25;;;;;;;;;;4880585;29;20437;-80
2023/09/06 00:31:35;;;;;;;4.28;3.97;;;;;;;;;;4881145;29;20056;-80
2023/09/06 00:34:01;;;;;;;3.85;3.60;;;;;;;;;;4879932;29;20486;-80
2023/09/06 00:36:29;;;;;;;3.92;3.63;;;;;;;;;;4879832;29;20064;-80
2023/09/06 00:38:57;;;;;;;4.40;3.70;;;;;;;;;;4880101;29;20399;-80
2023/09/06 00:41:23;;;;;;;3.95;3.55;;;;;;;;;;4879329;29;20499;-81
2023/09/06 00:43:50;;;;;;;4.03;3.63;;;;;;;;;;4881288;29;20049;-80
2023/09/06 00:46:16;;;;;;;3.60;3.40;;;;;;;;;;4864667;29;20526;-80
2023/09/06 00:48:42;;;;;;;4.13;3.83;;;;;;;;;;4880380;29;20049;-81
2023/09/06 00:51:08;;;;;;;4.18;3.67;;;;;;;;;;4881001;29;20517;-80
2023/09/06 00:53:34;;;;;;;4.15;3.85;;;;;;;;;;4880528;29;20053;-81
2023/09/06 00:56:03;;;;;;;4.18;3.78;;;;;;;;;;4881143;29;20493;-80
2023/09/06 00:58:30;;;;;;;5.85;4.35;;;;;;;;;;4880926;29;20513;-80
2023/09/06 01:00:57;;;;;;;3.60;3.33;;;;;;;;;;4863778;29;20112;-80
2023/09/06 01:03:23;;;;;;;4.57;4.28;;;;;;;;;;4879529;29;20394;-80
2023/09/06 01:05:51;;;;;;;3.75;3.50;;;;;;;;;;4880326;29;20048;-79
2023/09/06 01:08:27;;;;;;;3.75;3.45;;;;;;;;;;4880577;29;20056;-80
2023/09/06 01:10:53;;;;;;;4.05;3.47;;;;;;;;;;4864765;29;20513;-79
2023/09/06 01:13:20;;;;;;;5.60;3.95;;;;;;;;;;4879854;29;20088;-80
2023/09/06 01:15:47;;;;;;;3.42;3.20;;;;;;;;;;4864108;29;20504;-80
2023/09/06 01:18:13;;;;;;;4.25;3.65;;;;;;;;;;4864816;29;20096;-79
2023/09/06 01:20:57;;;;;;;3.88;3.58;;;;;;;;;;4880472;29;20496;-80
2023/09/06 01:23:33;;;;;;;4.05;3.40;;;;;;;;;;4880394;29;20052;-80
2023/09/06 01:25:59;;;;;;;5.35;3.47;;;;;;;;;;4880262;29;20049;-80
2023/09/06 01:28:27;;;;;;;3.92;3.42;;;;;;;;;;4879442;29;20053;-80
2023/09/06 01:30:56;;;;;;;3.70;3.50;;;;;;;;;;4880627;29;20064;-80
2023/09/06 01:33:22;;;;;;;6.18;3.33;;;;;;;;;;4880301;29;20053;-80
2023/09/06 01:35:49;;;;;;;5.78;3.40;;;;;;;;;;4884553;29;20057;-80
2023/09/06 01:38:15;;;;;;;3.78;3.40;;;;;;;;;;4883231;29;20045;-80
2023/09/06 01:40:42;;;;;;;3.33;3.10;;;;;;;;;;4882578;29;20061;-80
2023/09/06 01:43:08;;;;;;;3.67;3.35;;;;;;;;;;4882918;29;20100;-80
2023/09/06 01:45:35;;;;;;;4.03;3.72;;;;;;;;;;4867696;29;20075;-80
2023/09/06 01:48:03;;;;;;;5.65;3.70;;;;;;;;;;4882761;29;20135;-80
2023/09/06 01:50:29;;;;;;;4.07;3.75;;;;;;;;;;4883326;29;20061;-80
2023/09/06 01:52:55;;;;;;;3.90;3.53;;;;;;;;;;4882881;29;20063;-80
2023/09/06 01:55:21;;;;;;;5.32;4.30;;;;;;;;;;4883022;29;20053;-80
2023/09/06 01:57:47;;;;;;;3.90;3.55;;;;;;;;;;4883551;29;20052;-80
2023/09/06 02:02:49;;;;;;;3.90;3.60;;;;;;;;;;4883396;29;20057;-80
2023/09/06 02:05:15;;;;;;;4.45;3.90;;;;;;;;;;4882648;29;20486;-80
2023/09/06 02:07:42;;;;;;;3.47;3.22;;;;;;;;;;4867068;29;20064;-80
2023/09/06 02:10:08;;;;;;;4.15;3.88;;;;;;;;;;4882520;29;20061;-80
2023/09/06 02:12:35;;;;;;;5.55;4.28;;;;;;;;;;4881944;29;20056;-80
2023/09/06 02:15:01;;;;;;;5.15;4.75;;;;;;;;;;4883245;29;20049;-80
2023/09/06 02:17:27;;;;;;;3.72;3.45;;;;;;;;;;4882675;29;20099;-80
2023/09/06 02:19:53;;;;;;;4.57;4.13;;;;;;;;;;4882620;29;20055;-80
2023/09/06 02:22:19;;;;;;;4.35;4.07;;;;;;;;;;4882629;29;20045;-80
2023/09/06 02:24:45;;;;;;;4.18;3.78;;;;;;;;;;4866807;29;20059;-79
2023/09/06 02:27:12;;;;;;;4.57;3.78;;;;;;;;;;4882325;29;20053;-79
2023/09/06 02:29:39;;;;;;;3.85;3.55;;;;;;;;;;4882395;29;20067;-81
2023/09/06 02:32:05;;;;;;;4.72;4.13;;;;;;;;;;4883289;29;20053;-80
2023/09/06 02:34:31;;;;;;;4.88;4.47;;;;;;;;;;4881937;29;20144;-79
2023/09/06 02:36:59;;;;;;;3.95;3.75;;;;;;;;;;4881805;29;20136;-80
2023/09/06 02:39:25;;;;;;;5.45;5.10;;;;;;;;;;4883059;29;20084;-80
2023/09/06 02:41:51;;;;;;;4.57;3.78;;;;;;;;;;4866363;29;20063;-80
2023/09/06 02:44:17;;;;;;;4.78;4.43;;;;;;;;;;4881795;29;20143;-81
2023/09/06 02:46:44;;;;;;;4.70;4.35;;;;;;;;;;4865874;29;20052;-79
2023/09/06 02:49:13;;;;;;;4.53;4.22;;;;;;;;;;4881990;29;20059;-80
2023/09/06 02:51:42;;;;;;;3.70;3.40;;;;;;;;;;4883197;29;20112;-80
2023/09/06 02:54:12;;;;;;;5.00;4.65;;;;;;;;;;4881553;29;20049;-80
2023/09/06 02:56:38;;;;;;;5.13;4.68;;;;;;;;;;4882542;29;20140;-79
2023/09/06 02:59:07;;;;;;;5.00;4.70;;;;;;;;;;4867212;29;20112;-80
2023/09/06 03:01:35;;;;;;;4.22;3.92;;;;;;;;;;4882066;29;20052;-80
2023/09/06 03:04:06;;;;;;;5.15;4.63;;;;;;;;;;4882170;29;20053;-81
2023/09/06 03:06:33;;;;;;;4.53;4.13;;;;;;;;;;4882469;29;20092;-80
2023/09/06 03:09:00;;;;;;;6.93;4.35;;;;;;;;;;4883126;29;20063;-80
2023/09/06 03:11:26;;;;;;;4.93;4.63;;;;;;;;;;4866211;29;20193;-80
2023/09/06 03:13:57;;;;;;;6.50;5.90;;;;;;;;;;4881318;29;20068;-80
2023/09/06 03:16:23;;;;;;;4.63;4.22;;;;;;;;;;4881735;29;20053;-81
2023/09/06 03:18:49;;;;;;;6.35;4.28;;;;;;;;;;4882485;29;20498;-80
2023/09/06 03:21:17;;;;;;;4.55;4.25;;;;;;;;;;4882022;29;20092;-80
2023/09/06 03:23:45;;;;;;;4.95;4.60;;;;;;;;;;4866647;29;20136;-80
2023/09/06 03:26:12;;;;;;;4.45;4.25;;;;;;;;;;4867192;29;20045;-80
2023/09/06 03:28:42;;;;;;;5.93;5.53;;;;;;;;;;4865814;29;20052;-80
2023/09/06 03:31:13;;;;;;;6.03;5.60;;;;;;;;;;4881204;29;20052;-80
2023/09/06 03:33:39;;;;;;;4.75;4.45;;;;;;;;;;4866579;29;20057;-80
2023/09/06 03:36:09;;;;;;;4.78;4.55;;;;;;;;;;4882265;29;20100;-80
2023/09/06 03:38:36;;;;;;;7.78;4.93;;;;;;;;;;4882112;29;20524;-79
2023/09/06 03:41:03;;;;;;;5.20;4.70;;;;;;;;;;4880623;29;20064;-80
2023/09/06 03:43:32;;;;;;;8.98;4.82;;;;;;;;;;4881239;29;20100;-79
2023/09/06 03:45:58;;;;;;;5.43;4.93;;;;;;;;;;4880724;29;20053;-80
2023/09/06 03:48:27;;;;;;;5.10;4.82;;;;;;;;;;4882017;29;20135;-79
2023/09/06 03:50:57;;;;;;;4.82;4.47;;;;;;;;;;4865746;29;20538;-79
2023/09/06 03:53:25;;;;;;;8.80;5.55;;;;;;;;;;4881966;29;20053;-79
2023/09/06 03:55:51;;;;;;;4.85;4.55;;;;;;;;;;4880561;29;20104;-80
2023/09/06 03:58:18;;;;;;;5.20;4.70;;;;;;;;;;4864820;29;20049;-79
2023/09/06 04:00:44;;;;;;;6.03;5.63;;;;;;;;;;4880503;29;20048;-80
2023/09/06 04:03:14;;;;;;;5.53;5.13;;;;;;;;;;4880697;29;20387;-79
2023/09/06 04:05:43;;;;;;;5.32;4.93;;;;;;;;;;4881555;29;20052;-79
2023/09/06 04:08:09;;;;;;;6.25;5.70;;;;;;;;;;4880453;29;20121;-80
2023/09/06 04:10:40;;;;;;;5.35;4.93;;;;;;;;;;4880205;29;20060;-80
2023/09/06 04:13:07;;;;;;;5.53;5.03;;;;;;;;;;4880312;29;20129;-80
2023/09/06 04:15:34;;;;;;;5.72;5.32;;;;;;;;;;4865660;29;20054;-80
2023/09/06 04:18:01;;;;;;;5.80;5.30;;;;;;;;;;4880471;29;20151;-80
2023/09/06 04:20:31;;;;;;;6.25;5.65;;;;;;;;;;4881215;29;20092;-79
2023/09/06 04:22:58;;;;;;;6.90;6.30;;;;;;;;;;4881928;29;20104;-79
2023/09/06 04:25:26;;;;;;;7.20;6.55;;;;;;;;;;4881435;29;20057;-79
2023/09/06 04:27:56;;;;;;;6.53;6.00;;;;;;;;;;4865343;29;20081;-80
2023/09/06 04:30:28;;;;;;;6.20;5.85;;;;;;;;;;4865538;29;20052;-79
2023/09/06 04:33:00;;;;;;;5.75;5.10;;;;;;;;;;4880977;29;20395;-80
2023/09/06 04:35:42;;;;;;;6.00;5.53;;;;;;;;;;4881126;29;20056;-79
2023/09/06 04:38:09;;;;;;;6.50;5.95;;;;;;;;;;4879802;29;20174;-80
2023/09/06 04:40:35;;;;;;;6.72;6.22;;;;;;;;;;4879414;29;20140;-80
2023/09/06 04:43:01;;;;;;;6.35;5.78;;;;;;;;;;4879350;29;20565;-80
2023/09/06 04:45:27;;;;;;;7.70;6.60;;;;;;;;;;4880205;29;20049;-80
2023/09/06 04:47:54;;;;;;;6.85;6.22;;;;;;;;;;4880127;29;20056;-79
2023/09/06 04:50:22;;;;;;;7.03;6.40;;;;;;;;;;4879667;29;20067;-79
2023/09/06 04:52:50;;;;;;;7.05;6.47;;;;;;;;;;4880499;29;20291;-80
2023/09/06 04:55:19;;;;;;;6.00;5.60;;;;;;;;;;4879596;29;20060;-79
2023/09/06 04:57:45;;;;;;;8.98;6.72;;;;;;;;;;4879136;29;20509;-79
2023/09/06 05:00:23;;;;;;;7.25;6.63;;;;;;;;;;4879233;29;20045;-80
2023/09/06 05:02:51;;;;;;;6.78;6.28;;;;;;;;;;4879842;29;20056;-80
2023/09/06 05:05:18;;;;;;;7.63;6.65;;;;;;;;;;4879382;29;20126;-80
2023/09/06 05:07:47;;;;;;;6.78;6.25;;;;;;;;;;4881220;29;20553;-80
2023/09/06 05:10:13;;;;;;;7.43;6.93;;;;;;;;;;4870352;29;20060;-80
2023/09/06 05:12:40;;;;;;;6.10;5.47;;;;;;;;;;4885911;29;20096;-79
2023/09/06 05:15:06;;;;;;;6.18;5.43;;;;;;;;;;4886775;29;20140;-80
2023/09/06 05:17:32;;;;;;;6.45;5.88;;;;;;;;;;4870796;29;20060;-79
2023/09/06 05:20:18;;;;;;;6.55;6.05;;;;;;;;;;4885994;29;20053;-80
2023/09/06 05:22:44;;;;;;;7.15;6.57;;;;;;;;;;4885481;29;20080;-79
2023/09/06 05:25:11;;;;;;;6.57;6.15;;;;;;;;;;4870473;29;20060;-80
2023/09/06 05:27:37;;;;;;;6.88;6.40;;;;;;;;;;4871136;29;20070;-79
2023/09/06 05:30:03;;;;;;;6.43;6.03;;;;;;;;;;4886632;29;20091;-79
2023/09/06 05:32:29;;;;;;;7.57;7.00;;;;;;;;;;4885688;29;20057;-79
2023/09/06 05:34:55;;;;;;;7.03;6.22;;;;;;;;;;4884968;29;20544;-80
2023/09/06 05:37:22;;;;;;;7.40;6.70;;;;;;;;;;4885609;29;20044;-79
2023/09/06 05:39:48;;;;;;;6.55;5.93;;;;;;;;;;4885052;29;20052;-79
2023/09/06 05:42:14;;;;;;;7.22;6.60;;;;;;;;;;4884769;29;20085;-79
2023/09/06 05:44:40;;;;;;;6.20;5.35;;;;;;;;;;4885385;29;20096;-79
2023/09/06 05:47:06;;;;;;;6.78;6.28;;;;;;;;;;4885888;29;20131;-79
2023/09/06 05:49:32;;;;;;;6.10;5.80;;;;;;;;;;4885089;29;20060;-79
2023/09/06 05:51:58;;;;;;;7.53;6.93;;;;;;;;;;4885012;29;20433;-79
2023/09/06 05:54:24;;;;;;;7.22;6.60;;;;;;;;;;4884972;29;20044;-79
2023/09/06 05:56:50;;;;;;;6.40;6.00;;;;;;;;;;4885817;29;20140;-79
2023/09/06 05:59:16;;;;;;;5.88;5.47;;;;;;;;;;4869059;29;20053;-79
2023/09/06 06:01:43;;;;;;;6.53;5.93;;;;;;;;;;4886423;29;20386;-79
2023/09/06 06:04:11;;;;;;;7.75;7.07;;;;;;;;;;4884540;29;20053;-80
2023/09/06 06:06:37;;;;;;;7.05;6.07;;;;;;;;;;4869846;29;20057;-80
2023/09/06 06:09:11;;;;;;;6.88;6.38;;;;;;;;;;4885827;29;20052;-80
2023/09/06 06:11:37;;;;;;;7.05;6.35;;;;;;;;;;4870273;29;20045;-80
2023/09/06 06:14:04;;;;;;;6.93;5.97;;;;;;;;;;4885383;29;20435;-80
2023/09/06 06:16:30;;;;;;;7.55;7.00;;;;;;;;;;4886132;29;20055;-80
2023/09/06 06:18:56;;;;;;;7.55;7.05;;;;;;;;;;4885164;29;20049;-80
2023/09/06 06:21:28;;;;;;;6.88;6.38;;;;;;;;;;4882782;29;20052;-80
2023/09/06 06:23:54;;;;;;;7.07;6.68;;;;;;;;;;4867210;29;20140;-80
2023/09/06 06:26:21;;;;;;;7.65;6.95;;;;;;;;;;4882151;29;20057;-80
2023/09/06 06:28:49;;;;;;;8.05;7.35;;;;;;;;;;4882541;29;20394;-80
2023/09/06 06:31:15;;;;;;;7.63;7.03;;;;;;;;;;4882509;29;20141;-80
2023/09/06 06:33:43;;;;;;;7.88;7.20;;;;;;;;;;4882136;29;20088;-80
2023/09/06 06:36:09;;;;;;;7.50;6.90;;;;;;;;;;4867041;29;20504;-80
2023/09/06 06:38:35;;;;;;;7.40;6.80;;;;;;;;;;4882219;29;20546;-80
2023/09/06 06:41:02;;;;;;;7.95;7.32;;;;;;;;;;4882865;29;20044;-80
2023/09/06 06:43:28;;;;;;;7.68;6.93;;;;;;;;;;4882335;29;20061;-80
2023/09/06 06:45:54;;;;;;;7.53;6.80;;;;;;;;;;4881864;29;20113;-81
2023/09/06 06:48:21;;;;;;;7.93;7.15;;;;;;;;;;4866342;29;20049;-80
2023/09/06 06:50:47;;;;;;;7.72;7.07;;;;;;;;;;4883021;29;20048;-80
2023/09/06 06:53:13;;;;;;;7.57;7.07;;;;;;;;;;4881932;29;20045;-80
2023/09/06 06:55:40;;;;;;;8.52;7.47;;;;;;;;;;4882522;29;20470;-80
2023/09/06 06:58:09;;;;;;;7.22;6.60;;;;;;;;;;4867148;29;20459;-80
2023/09/06 07:00:35;;;;;;;7.20;6.53;;;;;;;;;;4866951;29;20057;-80
2023/09/06 07:03:02;;;;;;;7.18;5.90;;;;;;;;;;4881509;29;20061;-80
2023/09/06 07:05:28;;;;;;;5.93;5.38;;;;;;;;;;4881841;29;20068;-80
2023/09/06 07:07:54;;;;;;;5.95;5.50;;;;;;;;;;4882474;29;20053;-80
2023/09/06 07:10:25;;;;;;;6.40;5.80;;;;;;;;;;4881127;29;20073;-81
2023/09/06 07:12:51;;;;;;;6.85;6.25;;;;;;;;;;4866921;29;20057;-81
2023/09/06 07:15:17;;;;;;;7.05;5.43;;;;;;;;;;4867243;29;20076;-81
2023/09/06 07:17:43;;;;;;;5.47;4.88;;;;;;;;;;4865977;29;20045;-80
2023/09/06 07:20:10;;;;;;;6.90;4.80;;;;;;;;;;4866035;29;20454;-81
2023/09/06 07:22:36;;;;;;;4.65;4.25;;;;;;;;;;4881576;29;20084;-80
2023/09/06 07:25:04;;;;;;;8.13;4.85;;;;;;;;;;4882157;29;20055;-81
2023/09/06 07:27:30;;;;;;;4.40;4.10;;;;;;;;;;4881980;29;20414;-81
2023/09/06 07:29:56;;;;;;;4.10;3.90;;;;;;;;;;4882321;29;20101;-81
2023/09/06 07:32:22;;;;;;;3.72;3.53;;;;;;;;;;4880308;29;20080;-81
2023/09/06 07:34:48;;;;;;;4.28;3.97;;;;;;;;;;4880873;29;20044;-81
2023/09/06 07:37:14;;;;;;;4.15;3.80;;;;;;;;;;4882102;29;20451;-82
2023/09/06 07:39:40;;;;;;;4.53;4.13;;;;;;;;;;4881605;29;20045;-81
2023/09/06 07:42:06;;;;;;;3.83;3.53;;;;;;;;;;4865576;29;20463;-81
2023/09/06 07:44:32;;;;;;;4.07;3.67;;;;;;;;;;4882159;29;20064;-81
2023/09/06 07:46:59;;;;;;;4.15;3.75;;;;;;;;;;4881021;29;20521;-81
2023/09/06 07:49:28;;;;;;;3.65;3.20;;;;;;;;;;4881731;29;20049;-81
2023/09/06 07:51:54;;;;;;;3.85;3.65;;;;;;;;;;4865345;29;20379;-81
2023/09/06 07:54:20;;;;;;;4.82;4.32;;;;;;;;;;4865676;29;20049;-81
2023/09/06 07:56:47;;;;;;;4.75;3.00;;;;;;;;;;4881081;29;20498;-81
2023/09/06 07:59:13;;;;;;;3.15;2.95;;;;;;;;;;4881075;29;20053;-82
2023/09/06 08:01:39;;;;;;;6.13;3.20;;;;;;;;;;4880559;29;20045;-81
2023/09/06 08:04:05;;;;;;;5.75;2.60;;;;;;;;;;4882101;29;20048;-81
2023/09/06 08:06:32;;;;;;;3.33;2.75;;;;;;;;;;4881067;29;20390;-81
2023/09/06 08:08:58;;;;;;;3.15;2.58;;;;;;;;;;4881477;29;20057;-81
2023/09/06 08:11:25;;;;;;;3.05;2.33;;;;;;;;;;4881009;29;20053;-81
2023/09/06 08:13:51;;;;;;;2.78;2.42;;;;;;;;;;4880176;29;20064;-82
2023/09/06 08:16:19;;;;;;;1.80;1.70;;;;;;;;;;4881486;29;20478;-80
2023/09/06 08:18:48;;;;;;;2.67;1.83;;;;;;;;;;4881213;29;20101;-80
2023/09/06 08:21:15;;;;;;;2.25;1.45;;;;;;;;;;4879729;29;20052;-80
2023/09/06 08:23:41;;;;;;;1.20;1.00;;;;;;;;;;4880312;29;20045;-80
2023/09/06 08:26:07;;;;;;;2.13;1.95;;;;;;;;;;4880303;29;20044;-80
2023/09/06 08:28:35;;;;;;;3.20;1.48;;;;;;;;;;4881013;29;20057;-80
2023/09/06 08:31:01;;;;;;;3.70;1.75;;;;;;;;;;4881222;29;20394;-80
2023/09/06 08:33:27;;;;;;;2.05;1.35;;;;;;;;;;4879695;29;20049;-80
2023/09/06 08:35:53;;;;;;;2.63;1.70;;;;;;;;;;4880339;29;20367;-80
2023/09/06 08:38:19;;;;;;;1.80;1.20;;;;;;;;;;4879974;29;20064;-81
2023/09/06 08:40:46;;;;;;;1.75;1.40;;;;;;;;;;4879435;29;20494;-80
2023/09/06 08:43:14;;;;;;;3.70;1.70;;;;;;;;;;4880557;29;20056;-80
2023/09/06 08:45:43;;;;;;;2.58;1.60;;;;;;;;;;4880977;29;20371;-81
2023/09/06 08:48:10;;;;;;;1.52;1.42;;;;;;;;;;4881002;29;20100;-81
2023/09/06 08:50:36;;;;;;;1.50;1.40;;;;;;;;;;4864667;29;20045;-81
2023/09/06 08:53:03;;;;;;;2.10;1.27;;;;;;;;;;4879935;29;20049;-81
2023/09/06 08:55:30;;;;;;;3.00;1.40;;;;;;;;;;4880703;29;20102;-81
2023/09/06 08:57:57;;;;;;;3.28;1.13;;;;;;;;;;4865431;29;20128;-80
2023/09/06 09:00:23;;;;;;;4.47;1.30;;;;;;;;;;4879572;29;20462;-80
2023/09/06 09:02:50;;;;;;;3.05;1.17;;;;;;;;;;4865200;29;20076;-81
2023/09/06 09:05:16;;;;;;;2.50;1.20;;;;;;;;;;4879183;29;20057;-82
2023/09/06 09:07:42;;;;;;;1.30;1.00;;;;;;;;;;4879607;29;20517;-80
2023/09/06 09:10:13;;;;;;;1.70;1.17;;;;;;;;;;4880573;29;20375;-81
2023/09/06 09:12:40;;;;;;;3.33;1.40;;;;;;;;;;4864301;29;20053;-81
2023/09/06 09:15:07;;;;;;;1.88;0.98;;;;;;;;;;4879959;29;20082;-81
2023/09/06 09:17:34;;;;;;;2.90;1.35;;;;;;;;;;4879522;29;20398;-81
2023/09/06 09:20:00;;;;;;;1.80;0.98;;;;;;;;;;4879526;29;20379;-81
2023/09/06 09:22:30;;;;;;;1.80;1.20;;;;;;;;;;4879972;29;20394;-81
2023/09/06 09:24:58;;;;;;;4.20;1.10;;;;;;;;;;4881077;29;20045;-81
2023/09/06 09:27:27;;;;;;;2.92;1.10;;;;;;;;;;4864562;29;20093;-81
2023/09/06 09:29:53;;;;;;;1.80;0.80;;;;;;;;;;4880066;29;20057;-80
2023/09/06 09:32:19;;;;;;;1.75;0.73;;;;;;;;;;4879458;29;20052;-81
2023/09/06 09:34:45;;;;;;;1.20;1.10;;;;;;;;;;4848241;29;20057;-82
2023/09/06 09:37:11;;;;;;;1.35;0.90;;;;;;;;;;4879673;29;20506;-82
2023/09/06 09:39:38;;;;;;;3.28;0.90;;;;;;;;;;4879270;29;20056;-82
2023/09/06 09:42:13;;;;;;;1.40;0.73;;;;;;;;;;4878787;29;20056;-81
2023/09/06 09:44:40;;;;;;;2.15;0.90;;;;;;;;;;4864709;29;20061;-81
2023/09/06 09:47:13;;;;;;;1.05;0.95;;;;;;;;;;4849221;29;20057;-81
2023/09/06 09:49:43;;;;;;;3.17;1.35;;;;;;;;;;4863162;29;20480;-81
2023/09/06 09:52:10;;;;;;;1.63;1.00;;;;;;;;;;4880131;29;20498;-81
2023/09/06 09:54:39;;;;;;;0.95;0.80;;;;;;;;;;4864967;29;20060;-81
2023/09/06 09:57:06;;;;;;;3.35;0.90;;;;;;;;;;4867644;29;20149;-81
2023/09/06 09:59:36;;;;;;;2.58;0.93;;;;;;;;;;4867950;29;20045;-81
2023/09/06 10:02:04;;;;;;;2.05;0.95;;;;;;;;;;4883076;29;20049;-80
2023/09/06 10:04:30;;;;;;;2.17;0.90;;;;;;;;;;4882623;29;20053;-81
2023/09/06 10:06:57;;;;;;;1.27;1.10;;;;;;;;;;4882375;29;20041;-82
2023/09/06 10:09:23;;;;;;;1.48;0.85;;;;;;;;;;4882822;29;20108;-82
2023/09/06 10:11:51;;;;;;;1.02;0.68;;;;;;;;;;4884047;29;20059;-81
2023/09/06 10:14:22;;;;;;;1.90;0.80;;;;;;;;;;4867001;29;20105;-82
2023/09/06 10:16:49;;;;;;;1.60;0.88;;;;;;;;;;4884491;29;20184;-80
2023/09/06 10:19:15;;;;;;;2.40;0.80;;;;;;;;;;4883381;29;20109;-81
2023/09/06 10:21:42;;;;;;;1.40;1.27;;;;;;;;;;4866689;29;20044;-82
2023/09/06 10:24:15;;;;;;;0.70;0.70;;;;;;;;;;4867163;29;20056;-81
2023/09/06 10:26:43;;;;;;;2.45;0.85;;;;;;;;;;4882960;29;20061;-82
2023/09/06 10:29:09;;;;;;;1.90;0.70;;;;;;;;;;4867883;29;20099;-82
2023/09/06 10:32:02;;;;;;;1.15;0.73;;;;;;;;;;4882389;29;20101;-81
2023/09/06 10:34:30;;;;;;;1.38;0.80;;;;;;;;;;4878677;29;20116;-82
2023/09/06 10:36:58;;;;;;;1.90;0.90;;;;;;;;;;4882709;29;20434;-82
2023/09/06 10:39:28;;;;;;;1.35;0.70;;;;;;;;;;4882200;29;20111;-81
2023/09/06 10:42:11;;;;;;;1.60;0.60;;;;;;;;;;4882370;29;20056;-82
2023/09/06 10:44:55;;;;;;;2.05;0.70;;;;;;;;;;4882421;29;20451;-82
2023/09/06 10:47:21;;;;;;;;;;;;;;;;;;4866800;29;20072;-82
2023/09/06 10:50:07;;;;;;;2.15;0.88;;;;;;;;;;4882579;29;19924;-82
2023/09/06 10:52:43;;;;;;;2.65;1.02;;;;;;;;;;4882260;29;20109;-82
2023/09/06 10:55:17;;;;;;;1.35;0.77;;;;;;;;;;4881838;29;20045;-82
2023/09/06 10:57:49;;;;;;;1.13;0.70;;;;;;;;;;4882785;29;20366;-82
2023/09/06 11:00:19;;;;;;;7.30;0.82;;;;;;;;;;4881205;29;20049;-81
2023/09/06 11:03:05;;;;;;;2.28;0.75;;;;;;;;;;4881508;29;20135;-82
2023/09/06 11:05:35;;;;;;;1.52;0.68;;;;;;;;;;4880957;29;20132;-81
2023/09/06 11:08:01;;;;;;;2.78;0.70;;;;;;;;;;4881235;29;20049;-81
2023/09/06 11:10:27;;;;;;;1.65;0.60;;;;;;;;;;4866736;29;20482;-82
2023/09/06 11:12:54;;;;;;;1.00;0.80;;;;;;;;;;4881333;29;20460;-82
2023/09/06 11:15:21;;;;;;;2.15;0.70;;;;;;;;;;4881019;29;20478;-82
2023/09/06 11:17:47;;;;;;;2.15;0.70;;;;;;;;;;4881985;29;20109;-82
2023/09/06 11:20:14;;;;;;;2.33;0.70;;;;;;;;;;4881073;29;20091;-82
2023/09/06 11:22:50;;;;;;;1.15;0.70;;;;;;;;;;4883301;29;20084;-82
2023/09/06 11:25:17;;;;;;;1.52;0.70;;;;;;;;;;4881593;29;20053;-82
2023/09/06 11:27:45;;;;;;;0.90;0.63;;;;;;;;;;4881173;29;20057;-82
2023/09/06 11:30:18;;;;;;;2.15;0.63;;;;;;;;;;4881189;29;20069;-83
2023/09/06 11:32:44;;;;;;;2.40;0.50;;;;;;;;;;4881581;29;20085;-82
2023/09/06 11:35:11;;;;;;;6.60;0.80;;;;;;;;;;4882259;29;20060;-82
2023/09/06 11:37:38;;;;;;;1.40;0.63;;;;;;;;;;4866427;29;20140;-82
2023/09/06 11:40:14;;;;;;;1.00;0.50;;;;;;;;;;4880835;29;20052;-82
2023/09/06 11:42:42;;;;;;;3.80;0.73;;;;;;;;;;4880777;29;20065;-83
2023/09/06 11:45:09;;;;;;;3.15;0.50;;;;;;;;;;4880742;29;20045;-83
2023/09/06 11:47:37;;;;;;;1.38;0.40;;;;;;;;;;4865008;29;20056;-83
2023/09/06 11:50:06;;;;;;;1.63;0.50;;;;;;;;;;4882081;29;20056;-83
2023/09/06 11:52:34;;;;;;;1.40;0.40;;;;;;;;;;4881087;29;20109;-84
2023/09/06 11:55:08;;;;;;;1.35;0.43;;;;;;;;;;4881048;29;20048;-83
2023/09/06 11:57:37;;;;;;;1.10;0.32;;;;;;;;;;4881549;29;20101;-83
2023/09/06 12:00:19;;;;;;;1.52;0.60;;;;;;;;;;4881834;29;20056;-83
2023/09/06 12:02:49;;;;;;;1.35;0.50;;;;;;;;;;4881835;29;20112;-83
2023/09/06 12:05:16;;;;;;;6.70;0.60;;;;;;;;;;4882005;29;20056;-84
2023/09/06 12:07:43;;;;;;;1.00;0.40;;;;;;;;;;4882238;29;20056;-84
2023/09/06 12:10:11;;;;;;;1.17;0.40;;;;;;;;;;4881296;29;20057;-83
2023/09/06 12:12:41;;;;;;;0.93;0.50;;;;;;;;;;4880784;29;20423;-83
2023/09/06 12:15:14;;;;;;;0.82;0.50;;;;;;;;;;4882295;29;20053;-83
2023/09/06 12:17:43;;;;;;;1.20;0.50;;;;;;;;;;4880899;29;20091;-84
2023/09/06 12:20:15;;;;;;;2.20;0.50;;;;;;;;;;4881526;29;20574;-83
2023/09/06 12:22:41;;;;;;;2.38;0.50;;;;;;;;;;4866061;29;20144;-83
2023/09/06 12:25:08;;;;;;;2.50;0.60;;;;;;;;;;4881471;29;20048;-83
2023/09/06 12:27:34;;;;;;;1.90;0.98;;;;;;;;;;4880320;29;20053;-82
2023/09/06 12:30:00;;;;;;;1.35;0.60;;;;;;;;;;4880490;29;20529;-82
2023/09/06 12:32:28;;;;;;;0.65;0.50;;;;;;;;;;4880228;29;20049;-83
2023/09/06 12:34:55;;;;;;;2.35;0.40;;;;;;;;;;4865393;29;20052;-83
2023/09/06 12:37:21;;;;;;;1.08;0.65;;;;;;;;;;4880646;29;20394;-83
2023/09/06 12:39:47;;;;;;;0.60;0.47;;;;;;;;;;4881824;29;20049;-83
2023/09/06 12:42:13;;;;;;;2.08;0.40;;;;;;;;;;4864665;29;20056;-83
2023/09/06 12:44:39;;;;;;;1.35;0.50;;;;;;;;;;4880432;29;20079;-83
2023/09/06 12:47:06;;;;;;;0.82;0.45;;;;;;;;;;4880800;29;20049;-83
2023/09/06 12:49:32;;;;;;;2.95;0.43;;;;;;;;;;4864457;29;20057;-83
2023/09/06 12:51:58;;;;;;;0.60;0.40;;;;;;;;;;4880663;29;20132;-83
2023/09/06 12:54:24;;;;;;;3.22;0.45;;;;;;;;;;4880204;29;20059;-83
2023/09/06 12:56:50;;;;;;;0.85;0.40;;;;;;;;;;4865061;29;20096;-84
2023/09/06 12:59:16;;;;;;;0.50;0.47;;;;;;;;;;4880579;29;20049;-83
2023/09/06 13:01:43;;;;;;;2.45;0.40;;;;;;;;;;4880006;29;20088;-83
2023/09/06 13:04:09;;;;;;;1.92;0.50;;;;;;;;;;4880261;29;20049;-83
2023/09/06 13:06:35;;;;;;;2.78;0.60;;;;;;;;;;4880075;29;20558;-84
2023/09/06 13:09:01;;;;;;;0.80;0.40;;;;;;;;;;4881503;29;20049;-84
2023/09/06 13:11:27;;;;;;;1.42;0.52;;;;;;;;;;4879706;29;20060;-84
2023/09/06 13:13:53;;;;;;;2.15;0.52;;;;;;;;;;4879831;29;20507;-84
2023/09/06 13:16:19;;;;;;;1.75;0.50;;;;;;;;;;4880478;29;20053;-83
2023/09/06 13:18:45;;;;;;;0.50;0.30;;;;;;;;;;4864199;29;20105;-83
2023/09/06 13:21:13;;;;;;;1.45;0.57;;;;;;;;;;4879158;29;20052;-83
2023/09/06 13:23:39;;;;;;;0.47;0.35;;;;;;;;;;4864751;29;20057;-83
2023/09/06 13:26:06;;;;;;;2.28;0.50;;;;;;;;;;4880790;29;20052;-83
2023/09/06 13:28:33;;;;;;;2.15;0.40;;;;;;;;;;4880150;29;20383;-83
2023/09/06 13:31:00;;;;;;;0.95;0.40;;;;;;;;;;4882899;29;20512;-82
2023/09/06 13:33:26;;;;;;;0.82;0.40;;;;;;;;;;4868303;29;20431;-82
2023/09/06 13:35:52;;;;;;;0.95;0.32;;;;;;;;;;4884261;29;20055;-82
2023/09/06 13:38:18;;;;;;;1.25;0.40;;;;;;;;;;4884341;29;20390;-83
2023/09/06 13:40:44;;;;;;;0.80;0.40;;;;;;;;;;4885054;29;20052;-83
2023/09/06 13:43:10;;;;;;;2.65;0.50;;;;;;;;;;4883594;29;20479;-83
2023/09/06 13:45:36;;;;;;;3.22;0.45;;;;;;;;;;4883939;29;20065;-83
2023/09/06 13:48:02;;;;;;;1.33;0.40;;;;;;;;;;4884216;29;20053;-83
2023/09/06 13:50:28;;;;;;;2.03;0.40;;;;;;;;;;4882944;29;20052;-83
2023/09/06 13:52:54;;;;;;;3.25;0.40;;;;;;;;;;4883253;29;20072;-83
2023/09/06 13:55:21;;;;;;;1.48;0.40;;;;;;;;;;4867902;29;20132;-83
2023/09/06 13:57:47;;;;;;;2.13;0.47;;;;;;;;;;4883450;29;20393;-83
2023/09/06 14:00:13;;;;;;;2.97;0.40;;;;;;;;;;4883633;29;20057;-83
2023/09/06 14:02:39;;;;;;;1.48;0.40;;;;;;;;;;4884015;29;20435;-83
2023/09/06 14:05:08;;;;;;;1.85;0.40;;;;;;;;;;4884192;29;20089;-83
2023/09/06 14:07:37;;;;;;;2.38;0.30;;;;;;;;;;4883814;29;20095;-83
2023/09/06 14:10:06;;;;;;;2.67;0.30;;;;;;;;;;4868482;29;20397;-83
2023/09/06 14:12:32;;;;;;;0.65;0.20;;;;;;;;;;4882901;29;20056;-83
2023/09/06 14:14:58;;;;;;;0.60;0.30;;;;;;;;;;4883276;29;20057;-82
2023/09/06 14:17:24;;;;;;;1.52;0.38;;;;;;;;;;4882434;29;20053;-82
2023/09/06 14:19:51;;;;;;;0.98;0.40;;;;;;;;;;4866612;29;20060;-83
2023/09/06 14:22:17;;;;;;;1.33;0.30;;;;;;;;;;4883045;29;20498;-83
2023/09/06 14:24:43;;;;;;;0.60;0.30;;;;;;;;;;4882977;29;20056;-82
2023/09/06 14:27:09;;;;;;;2.05;0.40;;;;;;;;;;4867157;29;20061;-83
2023/09/06 14:29:35;;;;;;;2.10;0.30;;;;;;;;;;4882799;29;20044;-83
2023/09/06 14:32:01;;;;;;;2.38;0.30;;;;;;;;;;4883230;29;20067;-83
2023/09/06 14:34:27;;;;;;;2.25;0.35;;;;;;;;;;4882492;29;20478;-83
2023/09/06 14:36:53;;;;;;;5.38;0.30;;;;;;;;;;4882769;29;20053;-82
2023/09/06 14:39:19;;;;;;;2.97;0.30;;;;;;;;;;4866663;29;20136;-83
2023/09/06 14:41:45;;;;;;;1.40;0.30;;;;;;;;;;4880279;29;20116;-83
2023/09/06 14:44:12;;;;;;;0.85;0.30;;;;;;;;;;4882259;29;20053;-82
2023/09/06 14:46:38;;;;;;;0.40;0.20;;;;;;;;;;4882375;29;20048;-83
2023/09/06 14:49:05;;;;;;;0.40;0.20;;;;;;;;;;4882415;29;20143;-83